createdAt,value
2015-09-13T00:00:08.120Z,34
2015-09-13T00:00:26.482Z,33
2015-09-13T00:00:44.919Z,34
2015-09-13T00:01:03.325Z,34
2015-09-13T00:01:21.685Z,33
2015-09-13T00:01:40.077Z,34
2015-09-13T00:01:58.437Z,34
2015-09-13T00:02:16.843Z,33
2015-09-13T00:02:35.079Z,33
2015-09-13T00:02:53.486Z,33
2015-09-13T00:03:11.861Z,34
2015-09-13T00:03:30.269Z,33
2015-09-13T00:03:48.644Z,33
2015-09-13T00:04:07.066Z,33
2015-09-13T00:04:25.456Z,33
2015-09-13T00:04:43.896Z,34
2015-09-13T00:05:02.255Z,33
2015-09-13T00:05:20.630Z,34
2015-09-13T00:05:39.054Z,34
2015-09-13T00:05:57.492Z,34
2015-09-13T00:06:15.898Z,32
2015-09-13T00:06:34.259Z,33
2015-09-13T00:06:52.650Z,33
2015-09-13T00:07:11.041Z,34
2015-09-13T00:07:29.478Z,33
2015-09-13T00:07:47.730Z,33
2015-09-13T00:08:06.121Z,32
2015-09-13T00:08:24.543Z,33
2015-09-13T00:08:42.935Z,34
2015-09-13T00:09:01.310Z,33
2015-09-13T00:09:19.732Z,35
2015-09-13T00:09:38.109Z,34
2015-09-13T00:09:56.484Z,33
2015-09-13T00:10:14.875Z,33
2015-09-13T00:10:33.265Z,33
2015-09-13T00:10:51.642Z,33
2015-09-13T00:11:10.017Z,35
2015-09-13T00:11:28.408Z,31
2015-09-13T00:11:46.784Z,34
2015-09-13T00:12:05.128Z,34
2015-09-13T00:12:23.503Z,34
2015-09-13T00:12:41.895Z,33
2015-09-13T00:13:00.255Z,33
2015-09-13T00:13:18.723Z,34
2015-09-13T00:13:37.098Z,33
2015-09-13T00:13:55.460Z,32
2015-09-13T00:14:13.850Z,33
2015-09-13T00:14:32.257Z,33
2015-09-13T00:14:50.635Z,34
2015-09-13T00:15:09.010Z,33
2015-09-13T00:15:27.385Z,33
2015-09-13T00:15:45.792Z,33
2015-09-13T00:16:04.183Z,32
2015-09-13T00:16:22.558Z,33
2015-09-13T00:16:40.933Z,33
2015-09-13T00:16:59.310Z,33
2015-09-13T00:17:17.685Z,33
2015-09-13T00:17:36.075Z,34
2015-09-13T00:17:54.499Z,33
2015-09-13T00:18:13.030Z,32
2015-09-13T00:18:31.515Z,32
2015-09-13T00:18:50.033Z,32
2015-09-13T00:19:08.502Z,34
2015-09-13T00:19:26.908Z,33
2015-09-13T00:19:45.299Z,33
2015-09-13T00:20:03.692Z,32
2015-09-13T00:20:22.082Z,34
2015-09-13T00:20:40.457Z,34
2015-09-13T00:20:58.849Z,33
2015-09-13T00:21:17.239Z,33
2015-09-13T00:21:35.630Z,33
2015-09-13T00:21:54.007Z,33
2015-09-13T00:22:12.398Z,33
2015-09-13T00:22:30.835Z,32
2015-09-13T00:22:49.273Z,32
2015-09-13T00:23:07.775Z,33
2015-09-13T00:23:26.181Z,33
2015-09-13T00:23:44.618Z,33
2015-09-13T00:24:03.027Z,33
2015-09-13T00:24:21.433Z,33
2015-09-13T00:24:39.808Z,34
2015-09-13T00:24:58.201Z,33
2015-09-13T00:25:16.607Z,33
2015-09-13T00:25:35.029Z,34
2015-09-13T00:25:53.435Z,34
2015-09-13T00:26:11.828Z,32
2015-09-13T00:26:30.203Z,32
2015-09-13T00:26:48.984Z,34
2015-09-13T00:27:07.392Z,33
2015-09-13T00:27:25.814Z,32
2015-09-13T00:27:44.080Z,31
2015-09-13T00:28:02.457Z,33
2015-09-13T00:28:20.925Z,32
2015-09-13T00:28:39.503Z,33
2015-09-13T00:28:57.894Z,33
2015-09-13T00:29:16.349Z,33
2015-09-13T00:29:34.740Z,32
2015-09-13T00:29:53.130Z,32
2015-09-13T00:30:11.523Z,34
2015-09-13T00:30:29.929Z,33
2015-09-13T00:30:48.336Z,34
2015-09-13T00:31:06.744Z,32
2015-09-13T00:31:25.166Z,34
2015-09-13T00:31:43.556Z,33
2015-09-13T00:32:01.931Z,33
2015-09-13T00:32:20.324Z,32
2015-09-13T00:32:38.699Z,34
2015-09-13T00:32:57.074Z,33
2015-09-13T00:33:15.482Z,33
2015-09-13T00:33:33.857Z,33
2015-09-13T00:33:52.310Z,34
2015-09-13T00:34:10.703Z,33
2015-09-13T00:34:29.078Z,32
2015-09-13T00:34:47.469Z,33
2015-09-13T00:35:05.859Z,33
2015-09-13T00:35:24.252Z,33
2015-09-13T00:35:42.658Z,33
2015-09-13T00:36:01.017Z,33
2015-09-13T00:36:19.426Z,32
2015-09-13T00:36:37.816Z,33
2015-09-13T00:36:56.223Z,35
2015-09-13T00:37:14.600Z,35
2015-09-13T00:37:32.990Z,33
2015-09-13T00:37:51.381Z,34
2015-09-13T00:38:09.771Z,33
2015-09-13T00:38:28.195Z,33
2015-09-13T00:38:46.586Z,32
2015-09-13T00:39:04.961Z,32
2015-09-13T00:39:23.369Z,33
2015-09-13T00:39:41.791Z,34
2015-09-13T00:40:00.197Z,34
2015-09-13T00:40:18.606Z,33
2015-09-13T00:40:36.996Z,32
2015-09-13T00:40:55.387Z,34
2015-09-13T00:41:13.762Z,33
2015-09-13T00:41:32.154Z,34
2015-09-13T00:41:50.545Z,34
2015-09-13T00:42:08.936Z,34
2015-09-13T00:42:27.344Z,33
2015-09-13T00:42:45.766Z,33
2015-09-13T00:43:04.172Z,33
2015-09-13T00:43:22.564Z,33
2015-09-13T00:43:40.986Z,33
2015-09-13T00:43:59.376Z,33
2015-09-13T00:44:17.782Z,32
2015-09-13T00:44:36.206Z,33
2015-09-13T00:44:54.581Z,33
2015-09-13T00:45:12.972Z,33
2015-09-13T00:45:31.366Z,33
2015-09-13T00:45:49.866Z,33
2015-09-13T00:46:08.350Z,33
2015-09-13T00:46:26.757Z,33
2015-09-13T00:46:45.117Z,33
2015-09-13T00:47:03.507Z,33
2015-09-13T00:47:21.882Z,34
2015-09-13T00:47:40.276Z,33
2015-09-13T00:47:58.651Z,34
2015-09-13T00:48:17.041Z,34
2015-09-13T00:48:35.418Z,33
2015-09-13T00:48:53.793Z,30
2015-09-13T00:49:12.184Z,31
2015-09-13T00:49:30.576Z,31
2015-09-13T00:49:48.966Z,33
2015-09-13T00:50:07.326Z,33
2015-09-13T00:50:25.716Z,32
2015-09-13T00:50:44.093Z,33
2015-09-13T00:51:02.500Z,33
2015-09-13T00:51:20.875Z,32
2015-09-13T00:51:39.252Z,31
2015-09-13T00:51:57.627Z,33
2015-09-13T00:52:16.002Z,32
2015-09-13T00:52:34.379Z,32
2015-09-13T00:52:52.754Z,32
2015-09-13T00:53:11.129Z,33
2015-09-13T00:53:29.519Z,32
2015-09-13T00:53:47.256Z,32
2015-09-13T00:54:05.646Z,34
2015-09-13T00:54:24.021Z,34
2015-09-13T00:54:42.429Z,33
2015-09-13T00:55:00.804Z,32
2015-09-13T00:55:19.179Z,32
2015-09-13T00:55:37.588Z,32
2015-09-13T00:55:56.010Z,32
2015-09-13T00:56:14.385Z,32
2015-09-13T00:56:32.760Z,33
2015-09-13T00:56:51.168Z,33
2015-09-13T00:57:09.558Z,33
2015-09-13T00:57:27.980Z,32
2015-09-13T00:57:46.373Z,33
2015-09-13T00:58:04.826Z,33
2015-09-13T00:58:23.310Z,33
2015-09-13T00:58:41.734Z,32
2015-09-13T00:59:00.125Z,32
2015-09-13T00:59:18.469Z,32
2015-09-13T00:59:36.844Z,33
2015-09-13T00:59:55.221Z,32
2015-09-13T01:00:13.611Z,34
2015-09-13T01:00:32.002Z,32
2015-09-13T01:00:50.363Z,33
2015-09-13T01:01:08.738Z,33
2015-09-13T01:01:26.988Z,34
2015-09-13T01:01:45.397Z,34
2015-09-13T01:02:03.772Z,34
2015-09-13T01:02:22.225Z,33
2015-09-13T01:02:40.584Z,33
2015-09-13T01:02:58.960Z,34
2015-09-13T01:03:17.335Z,35
2015-09-13T01:03:35.741Z,33
2015-09-13T01:03:54.119Z,32
2015-09-13T01:04:12.510Z,34
2015-09-13T01:04:30.916Z,34
2015-09-13T01:04:49.308Z,32
2015-09-13T01:05:07.058Z,35
2015-09-13T01:05:25.417Z,33
2015-09-13T01:05:43.839Z,34
2015-09-13T01:06:02.232Z,33
2015-09-13T01:06:20.607Z,34
2015-09-13T01:06:38.997Z,33
2015-09-13T01:06:57.390Z,32
2015-09-13T01:07:15.781Z,34
2015-09-13T01:07:34.156Z,34
2015-09-13T01:07:52.534Z,33
2015-09-13T01:08:10.955Z,32
2015-09-13T01:08:29.377Z,32
2015-09-13T01:08:47.752Z,32
2015-09-13T01:09:06.128Z,32
2015-09-13T01:09:24.519Z,32
2015-09-13T01:09:42.910Z,33
2015-09-13T01:10:01.303Z,32
2015-09-13T01:10:19.709Z,32
2015-09-13T01:10:38.100Z,33
2015-09-13T01:10:56.493Z,33
2015-09-13T01:11:14.852Z,32
2015-09-13T01:11:33.321Z,32
2015-09-13T01:11:51.696Z,31
2015-09-13T01:12:10.088Z,32
2015-09-13T01:12:28.620Z,32
2015-09-13T01:12:47.010Z,33
2015-09-13T01:13:05.386Z,32
2015-09-13T01:13:23.793Z,33
2015-09-13T01:13:42.183Z,33
2015-09-13T01:14:00.560Z,33
2015-09-13T01:14:18.951Z,31
2015-09-13T01:14:37.341Z,30
2015-09-13T01:14:55.732Z,33
2015-09-13T01:15:14.109Z,32
2015-09-13T01:15:32.500Z,31
2015-09-13T01:15:50.906Z,31
2015-09-13T01:16:09.299Z,30
2015-09-13T01:16:27.689Z,32
2015-09-13T01:16:46.064Z,31
2015-09-13T01:17:04.457Z,32
2015-09-13T01:17:22.832Z,31
2015-09-13T01:17:41.207Z,31
2015-09-13T01:17:59.597Z,31
2015-09-13T01:18:17.974Z,31
2015-09-13T01:18:36.365Z,30
2015-09-13T01:18:54.756Z,31
2015-09-13T01:19:13.226Z,31
2015-09-13T01:19:31.601Z,31
2015-09-13T01:19:50.008Z,31
2015-09-13T01:20:08.400Z,30
2015-09-13T01:20:26.807Z,32
2015-09-13T01:20:45.228Z,31
2015-09-13T01:21:03.635Z,31
2015-09-13T01:21:22.027Z,30
2015-09-13T01:21:40.387Z,30
2015-09-13T01:21:58.121Z,30
2015-09-13T01:22:16.514Z,29
2015-09-13T01:22:34.920Z,30
2015-09-13T01:22:53.326Z,30
2015-09-13T01:23:11.688Z,31
2015-09-13T01:23:30.094Z,30
2015-09-13T01:23:48.500Z,30
2015-09-13T01:24:06.891Z,30
2015-09-13T01:24:25.268Z,30
2015-09-13T01:24:43.643Z,30
2015-09-13T01:25:02.033Z,31
2015-09-13T01:25:20.410Z,31
2015-09-13T01:25:38.785Z,31
2015-09-13T01:25:57.160Z,30
2015-09-13T01:26:15.553Z,31
2015-09-13T01:26:33.959Z,31
2015-09-13T01:26:52.350Z,31
2015-09-13T01:27:10.725Z,30
2015-09-13T01:27:29.102Z,31
2015-09-13T01:27:47.492Z,31
2015-09-13T01:28:05.852Z,31
2015-09-13T01:28:24.229Z,31
2015-09-13T01:28:42.588Z,31
2015-09-13T01:29:00.963Z,31
2015-09-13T01:29:19.356Z,30
2015-09-13T01:29:37.746Z,29
2015-09-13T01:29:56.121Z,30
2015-09-13T01:30:14.528Z,30
2015-09-13T01:30:32.935Z,31
2015-09-13T01:30:51.341Z,29
2015-09-13T01:31:09.716Z,29
2015-09-13T01:31:28.110Z,29
2015-09-13T01:31:46.469Z,29
2015-09-13T01:32:04.875Z,29
2015-09-13T01:32:23.268Z,29
2015-09-13T01:32:41.659Z,31
2015-09-13T01:33:00.049Z,30
2015-09-13T01:33:18.440Z,30
2015-09-13T01:33:36.816Z,30
2015-09-13T01:33:55.175Z,30
2015-09-13T01:34:13.566Z,30
2015-09-13T01:34:31.959Z,31
2015-09-13T01:34:50.334Z,30
2015-09-13T01:35:08.740Z,30
2015-09-13T01:35:27.117Z,30
2015-09-13T01:35:45.507Z,30
2015-09-13T01:36:03.914Z,30
2015-09-13T01:36:22.289Z,32
2015-09-13T01:36:40.698Z,31
2015-09-13T01:36:59.042Z,30
2015-09-13T01:37:17.401Z,30
2015-09-13T01:37:35.793Z,31
2015-09-13T01:37:54.183Z,30
2015-09-13T01:38:12.418Z,33
2015-09-13T01:38:30.810Z,33
2015-09-13T01:38:49.201Z,32
2015-09-13T01:39:07.607Z,33
2015-09-13T01:39:25.998Z,32
2015-09-13T01:39:44.375Z,33
2015-09-13T01:40:02.765Z,32
2015-09-13T01:40:21.140Z,31
2015-09-13T01:40:39.486Z,32
2015-09-13T01:40:57.877Z,31
2015-09-13T01:41:16.252Z,31
2015-09-13T01:41:34.629Z,32
2015-09-13T01:41:53.004Z,32
2015-09-13T01:42:11.394Z,32
2015-09-13T01:42:29.754Z,32
2015-09-13T01:42:48.162Z,33
2015-09-13T01:43:06.537Z,30
2015-09-13T01:43:24.912Z,31
2015-09-13T01:43:43.289Z,31
2015-09-13T01:44:02.430Z,31
2015-09-13T01:44:20.820Z,32
2015-09-13T01:44:39.182Z,31
2015-09-13T01:44:57.557Z,31
2015-09-13T01:45:15.932Z,31
2015-09-13T01:45:34.291Z,31
2015-09-13T01:45:52.684Z,30
2015-09-13T01:46:11.059Z,30
2015-09-13T01:46:29.434Z,31
2015-09-13T01:46:47.811Z,30
2015-09-13T01:47:06.201Z,31
2015-09-13T01:47:24.561Z,31
2015-09-13T01:47:42.953Z,32
2015-09-13T01:48:01.344Z,32
2015-09-13T01:48:19.719Z,31
2015-09-13T01:48:38.094Z,31
2015-09-13T01:48:56.487Z,31
2015-09-13T01:49:14.877Z,31
2015-09-13T01:49:33.237Z,31
2015-09-13T01:49:51.629Z,31
2015-09-13T01:50:10.004Z,29
2015-09-13T01:50:28.395Z,30
2015-09-13T01:50:46.772Z,29
2015-09-13T01:51:05.178Z,30
2015-09-13T01:51:23.350Z,30
2015-09-13T01:51:41.631Z,30
2015-09-13T01:52:00.039Z,30
2015-09-13T01:52:18.399Z,30
2015-09-13T01:52:36.758Z,29
2015-09-13T01:52:55.120Z,28
2015-09-13T01:53:13.510Z,29
2015-09-13T01:53:31.885Z,30
2015-09-13T01:53:50.278Z,30
2015-09-13T01:54:08.637Z,31
2015-09-13T01:54:27.012Z,30
2015-09-13T01:54:45.387Z,30
2015-09-13T01:55:03.764Z,29
2015-09-13T01:55:22.139Z,29
2015-09-13T01:55:40.514Z,29
2015-09-13T01:55:58.906Z,29
2015-09-13T01:56:17.281Z,29
2015-09-13T01:56:35.671Z,30
2015-09-13T01:56:54.048Z,30
2015-09-13T01:57:12.423Z,31
2015-09-13T01:57:30.798Z,31
2015-09-13T01:57:49.173Z,32
2015-09-13T01:58:07.582Z,32
2015-09-13T01:58:25.957Z,30
2015-09-13T01:58:44.332Z,31
2015-09-13T01:59:02.725Z,31
2015-09-13T01:59:21.085Z,31
2015-09-13T01:59:39.460Z,31
2015-09-13T01:59:57.852Z,31
2015-09-13T02:00:16.227Z,31
2015-09-13T02:00:34.618Z,30
2015-09-13T02:00:52.993Z,31
2015-09-13T02:01:11.400Z,31
2015-09-13T02:01:29.775Z,30
2015-09-13T02:01:48.166Z,30
2015-09-13T02:02:06.544Z,30
2015-09-13T02:02:24.903Z,29
2015-09-13T02:02:43.309Z,29
2015-09-13T02:03:01.670Z,29
2015-09-13T02:03:20.060Z,29
2015-09-13T02:03:38.420Z,30
2015-09-13T02:03:56.795Z,28
2015-09-13T02:04:15.173Z,30
2015-09-13T02:04:33.548Z,30
2015-09-13T02:04:51.923Z,29
2015-09-13T02:05:10.300Z,29
2015-09-13T02:05:28.690Z,29
2015-09-13T02:05:47.050Z,30
2015-09-13T02:06:05.410Z,29
2015-09-13T02:06:23.785Z,28
2015-09-13T02:06:42.160Z,29
2015-09-13T02:07:00.535Z,28
2015-09-13T02:07:18.897Z,28
2015-09-13T02:07:37.272Z,29
2015-09-13T02:07:55.647Z,29
2015-09-13T02:08:14.040Z,31
2015-09-13T02:08:32.415Z,30
2015-09-13T02:08:50.775Z,30
2015-09-13T02:09:09.166Z,30
2015-09-13T02:09:27.541Z,29
2015-09-13T02:09:45.916Z,30
2015-09-13T02:10:04.307Z,29
2015-09-13T02:10:22.685Z,29
2015-09-13T02:10:41.044Z,29
2015-09-13T02:10:59.294Z,30
2015-09-13T02:11:17.670Z,31
2015-09-13T02:11:36.045Z,31
2015-09-13T02:11:54.280Z,31
2015-09-13T02:12:12.672Z,31
2015-09-13T02:12:31.047Z,30
2015-09-13T02:12:49.250Z,30
2015-09-13T02:13:07.657Z,31
2015-09-13T02:13:26.049Z,30
2015-09-13T02:13:44.440Z,31
2015-09-13T02:14:02.815Z,31
2015-09-13T02:14:21.176Z,32
2015-09-13T02:14:39.551Z,32
2015-09-13T02:14:57.926Z,31
2015-09-13T02:15:16.303Z,31
2015-09-13T02:15:34.678Z,32
2015-09-13T02:15:53.053Z,32
2015-09-13T02:16:11.444Z,32
2015-09-13T02:16:29.821Z,31
2015-09-13T02:16:48.196Z,32
2015-09-13T02:17:06.571Z,32
2015-09-13T02:17:24.948Z,31
2015-09-13T02:17:43.338Z,31
2015-09-13T02:18:01.713Z,32
2015-09-13T02:18:20.122Z,32
2015-09-13T02:18:38.575Z,31
2015-09-13T02:18:56.950Z,31
2015-09-13T02:19:15.340Z,29
2015-09-13T02:19:33.717Z,29
2015-09-13T02:19:52.092Z,30
2015-09-13T02:20:10.483Z,31
2015-09-13T02:20:28.860Z,31
2015-09-13T02:20:47.266Z,30
2015-09-13T02:21:05.657Z,31
2015-09-13T02:21:24.033Z,31
2015-09-13T02:21:42.408Z,29
2015-09-13T02:22:00.830Z,29
2015-09-13T02:22:19.189Z,30
2015-09-13T02:22:37.582Z,28
2015-09-13T02:22:55.957Z,29
2015-09-13T02:23:14.347Z,32
2015-09-13T02:23:32.741Z,29
2015-09-13T02:23:51.116Z,29
2015-09-13T02:24:09.522Z,31
2015-09-13T02:24:27.915Z,30
2015-09-13T02:24:46.290Z,30
2015-09-13T02:25:04.509Z,31
2015-09-13T02:25:22.884Z,30
2015-09-13T02:25:41.260Z,30
2015-09-13T02:25:59.635Z,29
2015-09-13T02:26:17.994Z,29
2015-09-13T02:26:36.387Z,30
2015-09-13T02:26:54.121Z,29
2015-09-13T02:27:12.496Z,29
2015-09-13T02:27:30.874Z,30
2015-09-13T02:27:49.249Z,30
2015-09-13T02:28:07.640Z,30
2015-09-13T02:28:26.015Z,30
2015-09-13T02:28:44.235Z,29
2015-09-13T02:29:03.064Z,31
2015-09-13T02:29:21.423Z,29
2015-09-13T02:29:39.783Z,29
2015-09-13T02:29:58.174Z,30
2015-09-13T02:30:16.533Z,30
2015-09-13T02:30:34.926Z,31
2015-09-13T02:30:53.332Z,31
2015-09-13T02:31:11.707Z,29
2015-09-13T02:31:30.098Z,29
2015-09-13T02:31:48.475Z,29
2015-09-13T02:32:06.834Z,28
2015-09-13T02:32:25.209Z,30
2015-09-13T02:32:43.587Z,29
2015-09-13T02:33:02.009Z,29
2015-09-13T02:33:20.384Z,30
2015-09-13T02:33:38.760Z,30
2015-09-13T02:33:57.135Z,29
2015-09-13T02:34:15.510Z,29
2015-09-13T02:34:33.885Z,29
2015-09-13T02:34:52.262Z,30
2015-09-13T02:35:10.653Z,30
2015-09-13T02:35:29.043Z,30
2015-09-13T02:35:47.436Z,30
2015-09-13T02:36:05.811Z,30
2015-09-13T02:36:24.186Z,29
2015-09-13T02:36:42.594Z,30
2015-09-13T02:37:00.985Z,30
2015-09-13T02:37:19.360Z,31
2015-09-13T02:37:37.735Z,30
2015-09-13T02:37:56.096Z,29
2015-09-13T02:38:14.471Z,30
2015-09-13T02:38:32.846Z,31
2015-09-13T02:38:51.239Z,31
2015-09-13T02:39:09.614Z,32
2015-09-13T02:39:27.973Z,31
2015-09-13T02:39:46.335Z,31
2015-09-13T02:40:04.741Z,31
2015-09-13T02:40:23.116Z,31
2015-09-13T02:40:41.350Z,30
2015-09-13T02:40:59.727Z,29
2015-09-13T02:41:18.087Z,30
2015-09-13T02:41:36.477Z,30
2015-09-13T02:41:54.885Z,32
2015-09-13T02:42:13.260Z,31
2015-09-13T02:42:31.620Z,30
2015-09-13T02:42:50.028Z,30
2015-09-13T02:43:08.403Z,31
2015-09-13T02:43:26.794Z,31
2015-09-13T02:43:45.169Z,31
2015-09-13T02:44:03.561Z,31
2015-09-13T02:44:21.936Z,30
2015-09-13T02:44:40.327Z,30
2015-09-13T02:44:58.720Z,30
2015-09-13T02:45:17.079Z,32
2015-09-13T02:45:35.438Z,31
2015-09-13T02:45:53.831Z,31
2015-09-13T02:46:12.206Z,30
2015-09-13T02:46:30.597Z,31
2015-09-13T02:46:48.972Z,31
2015-09-13T02:47:07.332Z,31
2015-09-13T02:47:25.691Z,31
2015-09-13T02:47:44.098Z,31
2015-09-13T02:48:02.475Z,30
2015-09-13T02:48:20.850Z,30
2015-09-13T02:48:39.240Z,31
2015-09-13T02:48:57.602Z,30
2015-09-13T02:49:15.977Z,31
2015-09-13T02:49:34.336Z,31
2015-09-13T02:49:52.727Z,30
2015-09-13T02:50:11.119Z,30
2015-09-13T02:50:29.494Z,31
2015-09-13T02:50:47.854Z,31
2015-09-13T02:51:06.247Z,30
2015-09-13T02:51:24.653Z,31
2015-09-13T02:51:43.013Z,30
2015-09-13T02:52:01.420Z,30
2015-09-13T02:52:19.654Z,31
2015-09-13T02:52:38.029Z,30
2015-09-13T02:52:56.404Z,30
2015-09-13T02:53:14.782Z,31
2015-09-13T02:53:33.204Z,32
2015-09-13T02:53:51.595Z,32
2015-09-13T02:54:09.972Z,30
2015-09-13T02:54:28.347Z,31
2015-09-13T02:54:46.738Z,30
2015-09-13T02:55:05.145Z,31
2015-09-13T02:55:23.504Z,31
2015-09-13T02:55:41.910Z,31
2015-09-13T02:56:00.285Z,30
2015-09-13T02:56:18.678Z,31
2015-09-13T02:56:37.053Z,30
2015-09-13T02:56:55.428Z,31
2015-09-13T02:57:13.821Z,30
2015-09-13T02:57:32.211Z,30
2015-09-13T02:57:50.602Z,31
2015-09-13T02:58:08.963Z,31
2015-09-13T02:58:27.323Z,31
2015-09-13T02:58:45.713Z,31
2015-09-13T02:59:04.088Z,31
2015-09-13T02:59:22.481Z,30
2015-09-13T02:59:40.840Z,31
2015-09-13T02:59:59.215Z,29
2015-09-13T03:00:17.592Z,30
2015-09-13T03:00:35.983Z,31
2015-09-13T03:00:54.358Z,30
2015-09-13T03:01:12.752Z,30
2015-09-13T03:01:30.486Z,30
2015-09-13T03:01:48.877Z,30
2015-09-13T03:02:07.236Z,31
2015-09-13T03:02:25.628Z,31
2015-09-13T03:02:44.003Z,30
2015-09-13T03:03:02.393Z,31
2015-09-13T03:03:20.755Z,31
2015-09-13T03:03:39.161Z,31
2015-09-13T03:03:57.536Z,31
2015-09-13T03:04:15.896Z,30
2015-09-13T03:04:34.256Z,31
2015-09-13T03:04:52.631Z,30
2015-09-13T03:05:11.021Z,31
2015-09-13T03:05:29.430Z,30
2015-09-13T03:05:47.805Z,30
2015-09-13T03:06:06.180Z,31
2015-09-13T03:06:24.556Z,31
2015-09-13T03:06:42.931Z,30
2015-09-13T03:07:01.338Z,31
2015-09-13T03:07:19.730Z,32
2015-09-13T03:07:38.137Z,31
2015-09-13T03:07:56.496Z,31
2015-09-13T03:08:14.871Z,31
2015-09-13T03:08:33.249Z,31
2015-09-13T03:08:51.640Z,33
2015-09-13T03:09:10.015Z,31
2015-09-13T03:09:28.392Z,30
2015-09-13T03:09:46.767Z,29
2015-09-13T03:10:05.142Z,31
2015-09-13T03:10:23.534Z,30
2015-09-13T03:10:41.894Z,30
2015-09-13T03:11:00.284Z,29
2015-09-13T03:11:18.644Z,29
2015-09-13T03:11:37.021Z,30
2015-09-13T03:11:55.411Z,30
2015-09-13T03:12:13.786Z,30
2015-09-13T03:12:32.163Z,29
2015-09-13T03:12:50.554Z,32
2015-09-13T03:13:08.944Z,30
2015-09-13T03:13:27.306Z,30
2015-09-13T03:13:45.696Z,30
2015-09-13T03:14:04.087Z,28
2015-09-13T03:14:22.446Z,30
2015-09-13T03:14:40.839Z,29
2015-09-13T03:14:59.230Z,29
2015-09-13T03:15:17.589Z,30
2015-09-13T03:15:35.965Z,28
2015-09-13T03:15:54.324Z,30
2015-09-13T03:16:12.699Z,30
2015-09-13T03:16:31.076Z,29
2015-09-13T03:16:49.467Z,29
2015-09-13T03:17:07.842Z,29
2015-09-13T03:17:26.201Z,30
2015-09-13T03:17:44.407Z,28
2015-09-13T03:18:02.797Z,28
2015-09-13T03:18:21.203Z,30
2015-09-13T03:18:39.566Z,29
2015-09-13T03:18:57.941Z,29
2015-09-13T03:19:16.316Z,29
2015-09-13T03:19:34.708Z,29
2015-09-13T03:19:53.083Z,29
2015-09-13T03:20:11.458Z,28
2015-09-13T03:20:29.833Z,30
2015-09-13T03:20:48.210Z,30
2015-09-13T03:21:06.585Z,29
2015-09-13T03:21:24.929Z,29
2015-09-13T03:21:43.321Z,28
2015-09-13T03:22:01.696Z,28
2015-09-13T03:22:20.071Z,28
2015-09-13T03:22:38.479Z,29
2015-09-13T03:22:56.854Z,29
2015-09-13T03:23:15.245Z,29
2015-09-13T03:23:33.604Z,28
2015-09-13T03:23:51.982Z,30
2015-09-13T03:24:10.373Z,29
2015-09-13T03:24:28.763Z,30
2015-09-13T03:24:47.139Z,29
2015-09-13T03:25:05.499Z,29
2015-09-13T03:25:23.889Z,29
2015-09-13T03:25:42.266Z,28
2015-09-13T03:26:00.657Z,29
2015-09-13T03:26:19.079Z,30
2015-09-13T03:26:37.469Z,29
2015-09-13T03:26:55.846Z,31
2015-09-13T03:27:14.253Z,30
2015-09-13T03:27:32.612Z,30
2015-09-13T03:27:50.974Z,29
2015-09-13T03:28:09.334Z,29
2015-09-13T03:28:27.709Z,28
2015-09-13T03:28:46.100Z,29
2015-09-13T03:29:04.444Z,29
2015-09-13T03:29:22.835Z,28
2015-09-13T03:29:41.210Z,29
2015-09-13T03:29:59.571Z,29
2015-09-13T03:30:17.962Z,29
2015-09-13T03:30:36.352Z,30
2015-09-13T03:30:54.729Z,29
2015-09-13T03:31:13.136Z,30
2015-09-13T03:31:31.495Z,29
2015-09-13T03:31:49.872Z,30
2015-09-13T03:32:08.247Z,29
2015-09-13T03:32:26.606Z,31
2015-09-13T03:32:44.981Z,29
2015-09-13T03:33:03.358Z,29
2015-09-13T03:33:21.718Z,29
2015-09-13T03:33:40.077Z,28
2015-09-13T03:33:58.439Z,29
2015-09-13T03:34:16.814Z,29
2015-09-13T03:34:35.173Z,29
2015-09-13T03:34:53.581Z,29
2015-09-13T03:35:11.941Z,30
2015-09-13T03:35:30.316Z,29
2015-09-13T03:35:48.706Z,29
2015-09-13T03:36:07.068Z,29
2015-09-13T03:36:25.443Z,30
2015-09-13T03:36:43.802Z,29
2015-09-13T03:37:02.179Z,29
2015-09-13T03:37:20.538Z,30
2015-09-13T03:37:38.913Z,29
2015-09-13T03:37:57.290Z,29
2015-09-13T03:38:15.650Z,29
2015-09-13T03:38:34.056Z,29
2015-09-13T03:38:52.431Z,30
2015-09-13T03:39:10.807Z,29
2015-09-13T03:39:29.182Z,29
2015-09-13T03:39:47.557Z,30
2015-09-13T03:40:05.919Z,30
2015-09-13T03:40:24.294Z,30
2015-09-13T03:40:42.669Z,30
2015-09-13T03:41:01.062Z,30
2015-09-13T03:41:19.453Z,30
2015-09-13T03:41:37.812Z,29
2015-09-13T03:41:56.218Z,29
2015-09-13T03:42:14.579Z,29
2015-09-13T03:42:32.954Z,29
2015-09-13T03:42:51.313Z,29
2015-09-13T03:43:09.706Z,29
2015-09-13T03:43:28.112Z,29
2015-09-13T03:43:46.471Z,29
2015-09-13T03:44:04.865Z,30
2015-09-13T03:44:23.224Z,29
2015-09-13T03:44:41.584Z,30
2015-09-13T03:44:59.959Z,30
2015-09-13T03:45:18.335Z,30
2015-09-13T03:45:36.710Z,29
2015-09-13T03:45:55.085Z,30
2015-09-13T03:46:13.447Z,30
2015-09-13T03:46:31.838Z,31
2015-09-13T03:46:50.197Z,30
2015-09-13T03:47:08.573Z,31
2015-09-13T03:47:26.964Z,32
2015-09-13T03:47:45.323Z,32
2015-09-13T03:48:03.714Z,31
2015-09-13T03:48:22.091Z,31
2015-09-13T03:48:40.450Z,32
2015-09-13T03:48:58.809Z,30
2015-09-13T03:49:17.218Z,29
2015-09-13T03:49:35.593Z,30
2015-09-13T03:49:53.968Z,29
2015-09-13T03:50:12.376Z,31
2015-09-13T03:50:30.751Z,30
2015-09-13T03:50:49.141Z,30
2015-09-13T03:51:07.516Z,29
2015-09-13T03:51:25.878Z,29
2015-09-13T03:51:44.237Z,31
2015-09-13T03:52:02.628Z,29
2015-09-13T03:52:20.989Z,29
2015-09-13T03:52:39.364Z,30
2015-09-13T03:52:57.724Z,29
2015-09-13T03:53:16.101Z,30
2015-09-13T03:53:34.476Z,30
2015-09-13T03:53:52.866Z,30
2015-09-13T03:54:11.226Z,30
2015-09-13T03:54:29.634Z,30
2015-09-13T03:54:48.024Z,30
2015-09-13T03:55:06.384Z,30
2015-09-13T03:55:24.761Z,30
2015-09-13T03:55:43.136Z,29
2015-09-13T03:56:01.511Z,29
2015-09-13T03:56:19.888Z,30
2015-09-13T03:56:38.263Z,30
2015-09-13T03:56:56.622Z,29
2015-09-13T03:57:14.982Z,29
2015-09-13T03:57:33.390Z,30
2015-09-13T03:57:51.749Z,29
2015-09-13T03:58:10.124Z,29
2015-09-13T03:58:28.486Z,29
2015-09-13T03:58:46.861Z,31
2015-09-13T03:59:05.236Z,30
2015-09-13T03:59:23.628Z,30
2015-09-13T03:59:42.003Z,30
2015-09-13T04:00:00.363Z,29
2015-09-13T04:00:18.753Z,29
2015-09-13T04:00:37.130Z,31
2015-09-13T04:00:55.505Z,29
2015-09-13T04:01:13.865Z,32
2015-09-13T04:01:32.242Z,29
2015-09-13T04:01:50.601Z,29
2015-09-13T04:02:08.976Z,30
2015-09-13T04:02:27.353Z,29
2015-09-13T04:02:45.712Z,30
2015-09-13T04:03:04.087Z,30
2015-09-13T04:03:22.478Z,29
2015-09-13T04:03:40.823Z,29
2015-09-13T04:03:59.229Z,29
2015-09-13T04:04:17.604Z,30
2015-09-13T04:04:35.982Z,30
2015-09-13T04:04:54.357Z,31
2015-09-13T04:05:12.732Z,30
2015-09-13T04:05:31.124Z,29
2015-09-13T04:05:49.483Z,29
2015-09-13T04:06:07.858Z,30
2015-09-13T04:06:26.249Z,30
2015-09-13T04:06:44.627Z,30
2015-09-13T04:07:03.002Z,32
2015-09-13T04:07:21.377Z,30
2015-09-13T04:07:39.754Z,30
2015-09-13T04:07:58.129Z,29
2015-09-13T04:08:16.488Z,30
2015-09-13T04:08:34.865Z,30
2015-09-13T04:08:53.240Z,31
2015-09-13T04:09:11.615Z,30
2015-09-13T04:09:29.990Z,30
2015-09-13T04:09:48.351Z,30
2015-09-13T04:10:06.726Z,32
2015-09-13T04:10:25.101Z,30
2015-09-13T04:10:43.477Z,32
2015-09-13T04:11:01.852Z,31
2015-09-13T04:11:20.227Z,32
2015-09-13T04:11:38.604Z,33
2015-09-13T04:11:56.964Z,33
2015-09-13T04:12:15.339Z,33
2015-09-13T04:12:33.729Z,33
2015-09-13T04:12:52.107Z,34
2015-09-13T04:13:10.482Z,33
2015-09-13T04:13:28.842Z,34
2015-09-13T04:13:47.202Z,34
2015-09-13T04:14:05.608Z,33
2015-09-13T04:14:23.999Z,34
2015-09-13T04:14:42.392Z,34
2015-09-13T04:15:00.767Z,34
2015-09-13T04:15:19.142Z,34
2015-09-13T04:15:37.517Z,34
2015-09-13T04:15:55.910Z,35
2015-09-13T04:16:14.285Z,35
2015-09-13T04:16:32.645Z,35
2015-09-13T04:16:51.022Z,35
2015-09-13T04:17:09.397Z,34
2015-09-13T04:17:27.772Z,35
2015-09-13T04:17:46.133Z,36
2015-09-13T04:18:04.492Z,37
2015-09-13T04:18:22.852Z,37
2015-09-13T04:18:41.242Z,37
2015-09-13T04:18:58.946Z,37
2015-09-13T04:19:17.321Z,39
2015-09-13T04:19:35.696Z,39
2015-09-13T04:19:54.073Z,40
2015-09-13T04:20:12.308Z,40
2015-09-13T04:20:30.683Z,41
2015-09-13T04:20:49.044Z,41
2015-09-13T04:21:07.404Z,43
2015-09-13T04:21:25.763Z,43
2015-09-13T04:21:44.154Z,44
2015-09-13T04:22:02.531Z,45